sensor_id;sensor_type;location;lat;lon;timestamp;pressure;altitude;pressure_sealevel;temperature;humidity
42289;BME280;30230;47.520;19.016;2023-02-04T00:01:49;98679.69;;;3.76;96.38
42289;BME280;30230;47.520;19.016;2023-02-04T00:03:49;98683.47;;;3.82;96.22
42289;BME280;30230;47.520;19.016;2023-02-04T00:05:49;98678.97;;;3.82;96.77
42289;BME280;30230;47.520;19.016;2023-02-04T00:07:50;98681.69;;;3.74;96.79
42289;BME280;30230;47.520;19.016;2023-02-04T00:09:50;98681.13;;;3.87;96.57
42289;BME280;30230;47.520;19.016;2023-02-04T00:11:51;98673.50;;;3.76;97.02
42289;BME280;30230;47.520;19.016;2023-02-04T00:13:51;98686.53;;;3.79;97.57
42289;BME280;30230;47.520;19.016;2023-02-04T00:15:51;98675.53;;;3.74;97.57
42289;BME280;30230;47.520;19.016;2023-02-04T00:17:52;98675.72;;;3.72;98.15
42289;BME280;30230;47.520;19.016;2023-02-04T00:19:52;98678.06;;;3.67;97.59
42289;BME280;30230;47.520;19.016;2023-02-04T00:21:52;98670.91;;;3.68;98.17
42289;BME280;30230;47.520;19.016;2023-02-04T00:23:56;98678.00;;;3.83;97.05
42289;BME280;30230;47.520;19.016;2023-02-04T00:25:56;98671.50;;;3.78;97.31
42289;BME280;30230;47.520;19.016;2023-02-04T00:27:57;98664.97;;;3.80;97.88
42289;BME280;30230;47.520;19.016;2023-02-04T00:29:57;98663.75;;;3.91;95.94
42289;BME280;30230;47.520;19.016;2023-02-04T00:31:58;98665.09;;;3.87;96.49
42289;BME280;30230;47.520;19.016;2023-02-04T00:33:58;98659.97;;;3.77;97.44
42289;BME280;30230;47.520;19.016;2023-02-04T00:35:58;98648.72;;;3.90;95.94
42289;BME280;30230;47.520;19.016;2023-02-04T00:37:59;98647.19;;;3.96;95.90
42289;BME280;30230;47.520;19.016;2023-02-04T00:39:59;98642.84;;;3.95;95.58
42289;BME280;30230;47.520;19.016;2023-02-04T00:42:00;98641.97;;;4.02;94.30
42289;BME280;30230;47.520;19.016;2023-02-04T00:44:00;98646.13;;;4.05;94.59
42289;BME280;30230;47.520;19.016;2023-02-04T00:46:01;98647.50;;;4.01;96.15
42289;BME280;30230;47.520;19.016;2023-02-04T00:48:01;98640.22;;;3.86;96.03
42289;BME280;30230;47.520;19.016;2023-02-04T00:50:02;98635.03;;;3.93;95.72
42289;BME280;30230;47.520;19.016;2023-02-04T00:52:02;98629.59;;;4.01;95.15
42289;BME280;30230;47.520;19.016;2023-02-04T00:54:03;98634.53;;;3.89;95.85
42289;BME280;30230;47.520;19.016;2023-02-04T00:56:04;98635.19;;;3.91;95.22
42289;BME280;30230;47.520;19.016;2023-02-04T00:58:04;98627.00;;;3.93;95.12
42289;BME280;30230;47.520;19.016;2023-02-04T01:00:05;98633.81;;;3.96;94.75
42289;BME280;30230;47.520;19.016;2023-02-04T01:02:05;98634.88;;;3.86;96.12
42289;BME280;30230;47.520;19.016;2023-02-04T01:04:06;98635.47;;;3.97;94.39
42289;BME280;30230;47.520;19.016;2023-02-04T01:06:06;98637.44;;;4.03;94.49
42289;BME280;30230;47.520;19.016;2023-02-04T01:08:07;98640.66;;;3.98;94.34
42289;BME280;30230;47.520;19.016;2023-02-04T01:10:07;98627.34;;;3.90;94.99
42289;BME280;30230;47.520;19.016;2023-02-04T01:12:08;98624.38;;;4.08;93.48
42289;BME280;30230;47.520;19.016;2023-02-04T01:14:09;98624.75;;;4.05;93.72
42289;BME280;30230;47.520;19.016;2023-02-04T01:16:09;98621.38;;;4.11;93.34
42289;BME280;30230;47.520;19.016;2023-02-04T01:18:11;98627.94;;;4.00;94.09
42289;BME280;30230;47.520;19.016;2023-02-04T01:20:11;98624.75;;;4.05;93.12
42289;BME280;30230;47.520;19.016;2023-02-04T01:22:12;98601.22;;;4.00;93.86
42289;BME280;30230;47.520;19.016;2023-02-04T01:24:12;98619.94;;;4.00;94.06
42289;BME280;30230;47.520;19.016;2023-02-04T01:26:13;98617.88;;;4.10;94.04
42289;BME280;30230;47.520;19.016;2023-02-04T01:28:13;98605.38;;;4.03;93.25
42289;BME280;30230;47.520;19.016;2023-02-04T01:30:14;98600.50;;;4.06;92.69
42289;BME280;30230;47.520;19.016;2023-02-04T01:32:15;98613.31;;;4.19;92.77
42289;BME280;30230;47.520;19.016;2023-02-04T01:34:15;98611.31;;;4.13;92.72
42289;BME280;30230;47.520;19.016;2023-02-04T01:36:16;98618.66;;;4.19;92.46
42289;BME280;30230;47.520;19.016;2023-02-04T01:38:20;98610.13;;;4.15;91.96
42289;BME280;30230;47.520;19.016;2023-02-04T01:40:21;98616.31;;;4.16;92.75
42289;BME280;30230;47.520;19.016;2023-02-04T01:42:21;98610.69;;;4.11;93.02
42289;BME280;30230;47.520;19.016;2023-02-04T01:44:22;98612.31;;;4.12;92.33
42289;BME280;30230;47.520;19.016;2023-02-04T01:46:23;98624.00;;;4.19;92.32
42289;BME280;30230;47.520;19.016;2023-02-04T01:48:23;98606.97;;;4.12;92.67
42289;BME280;30230;47.520;19.016;2023-02-04T01:50:24;98634.00;;;4.17;92.74
42289;BME280;30230;47.520;19.016;2023-02-04T01:52:34;98613.97;;;4.13;92.80
42289;BME280;30230;47.520;19.016;2023-02-04T01:54:36;98605.31;;;4.11;92.65
42289;BME280;30230;47.520;19.016;2023-02-04T01:56:37;98614.66;;;4.15;92.34
42289;BME280;30230;47.520;19.016;2023-02-04T01:58:38;98616.72;;;4.05;93.07
42289;BME280;30230;47.520;19.016;2023-02-04T02:00:39;98626.53;;;4.12;92.79
42289;BME280;30230;47.520;19.016;2023-02-04T02:02:45;98631.03;;;4.12;92.38
42289;BME280;30230;47.520;19.016;2023-02-04T02:04:46;98639.00;;;4.20;92.57
42289;BME280;30230;47.520;19.016;2023-02-04T02:06:56;98644.69;;;4.17;92.92
42289;BME280;30230;47.520;19.016;2023-02-04T02:08:57;98614.78;;;3.99;92.33
42289;BME280;30230;47.520;19.016;2023-02-04T02:10:58;98628.03;;;4.15;92.10
42289;BME280;30230;47.520;19.016;2023-02-04T02:12:58;98633.66;;;4.20;92.45
42289;BME280;30230;47.520;19.016;2023-02-04T02:14:59;98642.41;;;4.14;92.94
42289;BME280;30230;47.520;19.016;2023-02-04T02:17:00;98632.69;;;4.13;92.52
42289;BME280;30230;47.520;19.016;2023-02-04T02:19:00;98641.84;;;4.18;92.72
42289;BME280;30230;47.520;19.016;2023-02-04T02:21:06;98648.63;;;4.06;93.18
42289;BME280;30230;47.520;19.016;2023-02-04T02:23:23;98642.84;;;4.17;92.56
42289;BME280;30230;47.520;19.016;2023-02-04T02:25:25;98653.09;;;4.14;93.61
42289;BME280;30230;47.520;19.016;2023-02-04T02:27:26;98641.13;;;4.02;94.49
42289;BME280;30230;47.520;19.016;2023-02-04T02:29:26;98650.03;;;3.94;95.11
42289;BME280;30230;47.520;19.016;2023-02-04T02:31:27;98646.06;;;3.90;95.26
42289;BME280;30230;47.520;19.016;2023-02-04T02:33:27;98640.19;;;3.95;95.41
42289;BME280;30230;47.520;19.016;2023-02-04T02:35:28;98624.16;;;3.95;95.17
42289;BME280;30230;47.520;19.016;2023-02-04T02:37:28;98645.75;;;4.08;94.55
42289;BME280;30230;47.520;19.016;2023-02-04T02:39:29;98639.81;;;3.98;94.95
42289;BME280;30230;47.520;19.016;2023-02-04T02:41:29;98629.69;;;3.93;95.47
42289;BME280;30230;47.520;19.016;2023-02-04T02:43:30;98653.97;;;4.06;93.78
42289;BME280;30230;47.520;19.016;2023-02-04T02:45:32;98619.75;;;4.02;94.34
42289;BME280;30230;47.520;19.016;2023-02-04T02:47:33;98634.00;;;3.94;95.35
42289;BME280;30230;47.520;19.016;2023-02-04T02:49:34;98634.44;;;4.06;94.54
42289;BME280;30230;47.520;19.016;2023-02-04T02:51:36;98630.44;;;4.02;95.08
42289;BME280;30230;47.520;19.016;2023-02-04T02:53:36;98631.63;;;3.99;95.38
42289;BME280;30230;47.520;19.016;2023-02-04T02:55:37;98630.81;;;3.99;95.28
42289;BME280;30230;47.520;19.016;2023-02-04T02:57:38;98632.81;;;3.97;95.32
42289;BME280;30230;47.520;19.016;2023-02-04T02:59:38;98622.06;;;4.05;95.12
42289;BME280;30230;47.520;19.016;2023-02-04T03:01:39;98608.59;;;3.98;95.29
42289;BME280;30230;47.520;19.016;2023-02-04T03:03:50;98612.56;;;4.02;94.90
42289;BME280;30230;47.520;19.016;2023-02-04T03:05:53;98618.91;;;4.01;94.87
42289;BME280;30230;47.520;19.016;2023-02-04T03:07:54;98615.31;;;3.94;95.71
42289;BME280;30230;47.520;19.016;2023-02-04T03:09:55;98616.91;;;4.03;95.25
42289;BME280;30230;47.520;19.016;2023-02-04T03:11:55;98621.47;;;3.95;96.41
42289;BME280;30230;47.520;19.016;2023-02-04T03:13:56;98597.97;;;3.90;96.54
42289;BME280;30230;47.520;19.016;2023-02-04T03:15:58;98618.31;;;3.91;98.17
42289;BME280;30230;47.520;19.016;2023-02-04T03:17:59;98626.41;;;3.83;99.30
42289;BME280;30230;47.520;19.016;2023-02-04T03:20:02;98634.72;;;3.88;99.22
42289;BME280;30230;47.520;19.016;2023-02-04T03:22:03;98630.22;;;3.88;98.55
42289;BME280;30230;47.520;19.016;2023-02-04T03:24:04;98630.72;;;3.84;100.00
42289;BME280;30230;47.520;19.016;2023-02-04T03:26:05;98616.06;;;3.80;100.00
42289;BME280;30230;47.520;19.016;2023-02-04T03:28:06;98621.38;;;3.88;100.00
42289;BME280;30230;47.520;19.016;2023-02-04T03:30:07;98616.13;;;3.95;100.00
42289;BME280;30230;47.520;19.016;2023-02-04T03:32:07;98607.34;;;3.86;100.00
42289;BME280;30230;47.520;19.016;2023-02-04T03:34:08;98606.09;;;3.74;100.00
42289;BME280;30230;47.520;19.016;2023-02-04T03:36:09;98602.22;;;3.76;100.00
42289;BME280;30230;47.520;19.016;2023-02-04T03:38:09;98635.41;;;3.82;100.00
42289;BME280;30230;47.520;19.016;2023-02-04T03:40:10;98613.09;;;3.75;100.00
42289;BME280;30230;47.520;19.016;2023-02-04T03:42:11;98601.44;;;3.68;100.00
42289;BME280;30230;47.520;19.016;2023-02-04T03:44:11;98611.63;;;3.72;100.00
42289;BME280;30230;47.520;19.016;2023-02-04T03:46:11;98606.94;;;3.66;100.00
42289;BME280;30230;47.520;19.016;2023-02-04T03:48:12;98609.16;;;3.62;100.00
42289;BME280;30230;47.520;19.016;2023-02-04T03:50:13;98605.28;;;3.65;100.00
42289;BME280;30230;47.520;19.016;2023-02-04T03:52:13;98607.47;;;3.61;100.00
42289;BME280;30230;47.520;19.016;2023-02-04T03:54:14;98611.53;;;3.57;100.00
42289;BME280;30230;47.520;19.016;2023-02-04T03:56:14;98609.31;;;3.61;100.00
42289;BME280;30230;47.520;19.016;2023-02-04T03:58:15;98611.31;;;3.67;100.00
42289;BME280;30230;47.520;19.016;2023-02-04T04:00:15;98610.00;;;3.63;100.00
42289;BME280;30230;47.520;19.016;2023-02-04T04:02:16;98610.00;;;3.63;100.00
42289;BME280;30230;47.520;19.016;2023-02-04T04:04:17;98589.66;;;3.54;100.00
42289;BME280;30230;47.520;19.016;2023-02-04T04:06:17;98587.66;;;3.56;100.00
42289;BME280;30230;47.520;19.016;2023-02-04T04:08:18;98609.31;;;3.61;100.00
42289;BME280;30230;47.520;19.016;2023-02-04T04:10:18;98593.44;;;3.68;100.00
42289;BME280;30230;47.520;19.016;2023-02-04T04:12:19;98600.97;;;3.64;100.00
42289;BME280;30230;47.520;19.016;2023-02-04T04:14:19;98593.13;;;3.62;100.00
42289;BME280;30230;47.520;19.016;2023-02-04T04:16:20;98586.97;;;3.62;100.00
42289;BME280;30230;47.520;19.016;2023-02-04T04:18:20;98590.91;;;3.66;100.00
42289;BME280;30230;47.520;19.016;2023-02-04T04:20:21;98583.63;;;3.60;100.00
42289;BME280;30230;47.520;19.016;2023-02-04T04:22:24;98584.59;;;3.67;100.00
42289;BME280;30230;47.520;19.016;2023-02-04T04:24:25;98586.06;;;3.70;100.00
42289;BME280;30230;47.520;19.016;2023-02-04T04:26:25;98578.28;;;3.60;100.00
42289;BME280;30230;47.520;19.016;2023-02-04T04:28:26;98582.47;;;3.62;100.00
42289;BME280;30230;47.520;19.016;2023-02-04T04:30:26;98562.75;;;3.63;100.00
42289;BME280;30230;47.520;19.016;2023-02-04T04:32:26;98562.06;;;3.61;100.00
42289;BME280;30230;47.520;19.016;2023-02-04T04:34:27;98557.22;;;3.65;100.00
42289;BME280;30230;47.520;19.016;2023-02-04T04:36:27;98557.22;;;3.65;100.00
42289;BME280;30230;47.520;19.016;2023-02-04T04:38:28;98558.72;;;3.68;100.00
42289;BME280;30230;47.520;19.016;2023-02-04T04:40:28;98548.88;;;3.68;100.00
42289;BME280;30230;47.520;19.016;2023-02-04T04:42:28;98550.94;;;3.81;100.00
42289;BME280;30230;47.520;19.016;2023-02-04T04:44:29;98550.41;;;3.85;100.00
42289;BME280;30230;47.520;19.016;2023-02-04T04:46:29;98565.59;;;3.85;100.00
42289;BME280;30230;47.520;19.016;2023-02-04T04:48:30;98542.44;;;3.77;100.00
42289;BME280;30230;47.520;19.016;2023-02-04T04:50:30;98557.78;;;3.83;100.00
42289;BME280;30230;47.520;19.016;2023-02-04T04:52:30;98555.56;;;3.87;100.00
42289;BME280;30230;47.520;19.016;2023-02-04T04:54:31;98545.66;;;3.96;98.84
42289;BME280;30230;47.520;19.016;2023-02-04T04:56:31;98562.41;;;3.89;100.00
42289;BME280;30230;47.520;19.016;2023-02-04T04:58:32;98555.50;;;3.95;99.69
42289;BME280;30230;47.520;19.016;2023-02-04T05:00:33;98560.75;;;3.88;99.37
42289;BME280;30230;47.520;19.016;2023-02-04T05:02:33;98544.34;;;3.91;100.00
42289;BME280;30230;47.520;19.016;2023-02-04T05:04:34;98543.44;;;3.76;100.00
42289;BME280;30230;47.520;19.016;2023-02-04T05:06:34;98564.69;;;3.92;98.84
42289;BME280;30230;47.520;19.016;2023-02-04T05:08:35;98552.50;;;3.98;98.15
42289;BME280;30230;47.520;19.016;2023-02-04T05:10:35;98571.50;;;4.03;97.66
42289;BME280;30230;47.520;19.016;2023-02-04T05:12:35;98569.88;;;3.94;97.62
42289;BME280;30230;47.520;19.016;2023-02-04T05:14:36;98576.84;;;4.03;95.94
42289;BME280;30230;47.520;19.016;2023-02-04T05:16:37;98558.88;;;4.12;96.03
42289;BME280;30230;47.520;19.016;2023-02-04T05:18:38;98556.59;;;4.09;96.35
42289;BME280;30230;47.520;19.016;2023-02-04T05:20:38;98559.59;;;4.06;95.83
42289;BME280;30230;47.520;19.016;2023-02-04T05:22:39;98564.59;;;4.09;95.86
42289;BME280;30230;47.520;19.016;2023-02-04T05:24:39;98550.41;;;4.08;95.33
42289;BME280;30230;47.520;19.016;2023-02-04T05:26:40;98570.88;;;4.16;95.19
42289;BME280;30230;47.520;19.016;2023-02-04T05:28:40;98557.84;;;4.13;95.06
42289;BME280;30230;47.520;19.016;2023-02-04T05:30:40;98563.41;;;4.11;94.81
42289;BME280;30230;47.520;19.016;2023-02-04T05:32:41;98549.75;;;4.06;95.77
42289;BME280;30230;47.520;19.016;2023-02-04T05:34:41;98554.19;;;4.14;96.71
42289;BME280;30230;47.520;19.016;2023-02-04T05:36:42;98554.56;;;4.11;96.42
42289;BME280;30230;47.520;19.016;2023-02-04T05:38:42;98544.94;;;4.02;95.71
42289;BME280;30230;47.520;19.016;2023-02-04T05:40:42;98543.03;;;4.10;96.32
42289;BME280;30230;47.520;19.016;2023-02-04T05:42:43;98528.44;;;3.98;97.43
42289;BME280;30230;47.520;19.016;2023-02-04T05:44:43;98532.06;;;4.05;98.77
42289;BME280;30230;47.520;19.016;2023-02-04T05:46:44;98525.09;;;3.96;98.85
42289;BME280;30230;47.520;19.016;2023-02-04T05:48:44;98558.22;;;3.87;99.60
42289;BME280;30230;47.520;19.016;2023-02-04T05:50:44;98549.81;;;3.75;99.05
42289;BME280;30230;47.520;19.016;2023-02-04T05:52:45;98551.47;;;3.76;98.42
42289;BME280;30230;47.520;19.016;2023-02-04T05:54:45;98573.06;;;3.66;100.00
42289;BME280;30230;47.520;19.016;2023-02-04T05:56:46;98556.81;;;3.76;98.34
42289;BME280;30230;47.520;19.016;2023-02-04T05:58:46;98541.56;;;3.62;97.02
42289;BME280;30230;47.520;19.016;2023-02-04T06:00:47;98526.75;;;3.51;96.49
42289;BME280;30230;47.520;19.016;2023-02-04T06:02:48;98526.03;;;3.34;97.66
42289;BME280;30230;47.520;19.016;2023-02-04T06:04:48;98559.16;;;3.48;96.26
42289;BME280;30230;47.520;19.016;2023-02-04T06:06:48;98574.69;;;3.45;95.55
42289;BME280;30230;47.520;19.016;2023-02-04T06:08:49;98563.28;;;3.28;95.49
42289;BME280;30230;47.520;19.016;2023-02-04T06:10:49;98565.66;;;3.14;96.38
42289;BME280;30230;47.520;19.016;2023-02-04T06:12:49;98570.97;;;3.23;95.25
42289;BME280;30230;47.520;19.016;2023-02-04T06:14:50;98586.50;;;3.19;95.05
42289;BME280;30230;47.520;19.016;2023-02-04T06:16:50;98595.19;;;3.13;95.09
42289;BME280;30230;47.520;19.016;2023-02-04T06:18:51;98586.84;;;3.16;94.82
42289;BME280;30230;47.520;19.016;2023-02-04T06:20:51;98623.94;;;2.95;95.49
42289;BME280;30230;47.520;19.016;2023-02-04T06:22:51;98620.41;;;2.94;94.39
42289;BME280;30230;47.520;19.016;2023-02-04T06:24:53;98618.63;;;2.86;95.11
42289;BME280;30230;47.520;19.016;2023-02-04T06:26:53;98612.59;;;2.93;94.55
42289;BME280;30230;47.520;19.016;2023-02-04T06:28:54;98624.59;;;2.88;93.90
42289;BME280;30230;47.520;19.016;2023-02-04T06:30:54;98640.78;;;2.87;93.44
42289;BME280;30230;47.520;19.016;2023-02-04T06:32:55;98611.03;;;2.59;94.12
42289;BME280;30230;47.520;19.016;2023-02-04T06:34:55;98648.31;;;2.75;93.73
42289;BME280;30230;47.520;19.016;2023-02-04T06:36:55;98678.31;;;2.77;94.42
42289;BME280;30230;47.520;19.016;2023-02-04T06:38:56;98645.31;;;2.70;93.65
42289;BME280;30230;47.520;19.016;2023-02-04T06:40:57;98662.66;;;2.74;94.29
42289;BME280;30230;47.520;19.016;2023-02-04T06:42:57;98668.00;;;2.74;94.05
42289;BME280;30230;47.520;19.016;2023-02-04T06:44:57;98679.66;;;2.81;93.79
42289;BME280;30230;47.520;19.016;2023-02-04T06:46:58;98654.97;;;2.71;91.91
42289;BME280;30230;47.520;19.016;2023-02-04T06:48:58;98694.13;;;2.79;93.24
42289;BME280;30230;47.520;19.016;2023-02-04T06:50:59;98695.00;;;2.79;93.90
42289;BME280;30230;47.520;19.016;2023-02-04T06:52:59;98703.97;;;2.78;93.49
42289;BME280;30230;47.520;19.016;2023-02-04T06:54:59;98659.50;;;2.54;93.33
42289;BME280;30230;47.520;19.016;2023-02-04T06:57:00;98699.00;;;2.75;92.07
42289;BME280;30230;47.520;19.016;2023-02-04T06:59:05;98716.31;;;2.87;92.56
42289;BME280;30230;47.520;19.016;2023-02-04T07:01:06;98703.78;;;2.88;92.64
42289;BME280;30230;47.520;19.016;2023-02-04T07:03:06;98690.63;;;2.86;91.61
42289;BME280;30230;47.520;19.016;2023-02-04T07:05:07;98686.59;;;2.99;89.38
42289;BME280;30230;47.520;19.016;2023-02-04T07:07:09;98673.13;;;2.84;89.02
42289;BME280;30230;47.520;19.016;2023-02-04T07:09:10;98683.78;;;2.84;89.07
42289;BME280;30230;47.520;19.016;2023-02-04T07:11:10;98661.47;;;2.77;87.41
42289;BME280;30230;47.520;19.016;2023-02-04T07:13:11;98683.31;;;2.72;88.57
42289;BME280;30230;47.520;19.016;2023-02-04T07:15:11;98695.66;;;2.65;88.27
42289;BME280;30230;47.520;19.016;2023-02-04T07:17:11;98689.00;;;2.61;88.62
42289;BME280;30230;47.520;19.016;2023-02-04T07:19:12;98694.81;;;2.73;87.28
42289;BME280;30230;47.520;19.016;2023-02-04T07:21:12;98692.63;;;2.68;88.38
42289;BME280;30230;47.520;19.016;2023-02-04T07:23:13;98700.81;;;2.34;87.71
42289;BME280;30230;47.520;19.016;2023-02-04T07:25:13;98686.28;;;2.20;88.55
42289;BME280;30230;47.520;19.016;2023-02-04T07:27:15;98669.00;;;2.24;89.52
42289;BME280;30230;47.520;19.016;2023-02-04T07:29:16;98680.66;;;2.23;87.30
42289;BME280;30230;47.520;19.016;2023-02-04T07:31:18;98699.31;;;2.23;87.24
42289;BME280;30230;47.520;19.016;2023-02-04T07:33:18;98713.44;;;2.07;88.15
42289;BME280;30230;47.520;19.016;2023-02-04T07:35:18;98729.25;;;2.09;87.34
42289;BME280;30230;47.520;19.016;2023-02-04T07:37:19;98702.78;;;2.07;87.46
42289;BME280;30230;47.520;19.016;2023-02-04T07:39:19;98700.94;;;2.08;87.98
42289;BME280;30230;47.520;19.016;2023-02-04T07:41:20;98720.75;;;2.22;85.70
42289;BME280;30230;47.520;19.016;2023-02-04T07:43:20;98746.25;;;2.24;85.58
42289;BME280;30230;47.520;19.016;2023-02-04T07:45:21;98727.09;;;2.21;85.91
42289;BME280;30230;47.520;19.016;2023-02-04T07:47:22;98718.47;;;2.35;85.61
42289;BME280;30230;47.520;19.016;2023-02-04T07:49:22;98744.47;;;2.33;84.37
42289;BME280;30230;47.520;19.016;2023-02-04T07:51:22;98713.09;;;2.27;83.35
42289;BME280;30230;47.520;19.016;2023-02-04T07:53:23;98725.63;;;2.43;81.71
42289;BME280;30230;47.520;19.016;2023-02-04T07:55:23;98737.94;;;2.35;80.32
42289;BME280;30230;47.520;19.016;2023-02-04T07:57:24;98710.97;;;2.30;80.25
42289;BME280;30230;47.520;19.016;2023-02-04T07:59:24;98752.28;;;2.34;81.04
42289;BME280;30230;47.520;19.016;2023-02-04T08:01:24;98763.63;;;2.45;80.11
42289;BME280;30230;47.520;19.016;2023-02-04T08:03:25;98748.97;;;2.49;79.71
42289;BME280;30230;47.520;19.016;2023-02-04T08:05:25;98763.63;;;2.45;80.07
42289;BME280;30230;47.520;19.016;2023-02-04T08:07:25;98755.94;;;2.33;79.19
42289;BME280;30230;47.520;19.016;2023-02-04T08:09:26;98749.81;;;2.49;78.52
42289;BME280;30230;47.520;19.016;2023-02-04T08:11:26;98782.97;;;2.55;78.60
42289;BME280;30230;47.520;19.016;2023-02-04T08:13:27;98765.63;;;2.51;77.91
42289;BME280;30230;47.520;19.016;2023-02-04T08:15:27;98786.53;;;2.21;78.95
42289;BME280;30230;47.520;19.016;2023-02-04T08:17:28;98775.41;;;2.26;79.43
42289;BME280;30230;47.520;19.016;2023-02-04T08:19:28;98791.22;;;2.19;78.68
42289;BME280;30230;47.520;19.016;2023-02-04T08:21:29;98829.16;;;2.13;79.75
42289;BME280;30230;47.520;19.016;2023-02-04T08:23:29;98830.63;;;2.07;79.30
42289;BME280;30230;47.520;19.016;2023-02-04T08:25:29;98812.97;;;2.06;78.38
42289;BME280;30230;47.520;19.016;2023-02-04T08:27:30;98828.44;;;2.03;79.89
42289;BME280;30230;47.520;19.016;2023-02-04T08:29:30;98831.44;;;2.00;80.41
42289;BME280;30230;47.520;19.016;2023-02-04T08:31:31;98836.22;;;1.96;78.92
42289;BME280;30230;47.520;19.016;2023-02-04T08:33:32;98854.69;;;1.90;79.66
42289;BME280;30230;47.520;19.016;2023-02-04T08:35:32;98858.75;;;2.02;78.77
42289;BME280;30230;47.520;19.016;2023-02-04T08:37:33;98856.41;;;1.99;78.61
42289;BME280;30230;47.520;19.016;2023-02-04T08:39:33;98882.56;;;2.03;77.72
42289;BME280;30230;47.520;19.016;2023-02-04T08:41:34;98867.53;;;1.94;78.43
42289;BME280;30230;47.520;19.016;2023-02-04T08:43:34;98868.69;;;1.92;79.35
42289;BME280;30230;47.520;19.016;2023-02-04T08:45:36;98896.06;;;2.10;78.14
42289;BME280;30230;47.520;19.016;2023-02-04T08:47:36;98894.13;;;2.20;75.84
42289;BME280;30230;47.520;19.016;2023-02-04T08:49:36;98883.47;;;2.20;76.99
42289;BME280;30230;47.520;19.016;2023-02-04T08:51:37;98858.88;;;1.92;77.28
42289;BME280;30230;47.520;19.016;2023-02-04T08:53:37;98901.97;;;1.96;77.54
42289;BME280;30230;47.520;19.016;2023-02-04T08:55:39;98908.84;;;1.98;78.43
42289;BME280;30230;47.520;19.016;2023-02-04T08:57:40;98912.13;;;1.92;77.83
42289;BME280;30230;47.520;19.016;2023-02-04T08:59:40;98918.09;;;1.86;77.27
42289;BME280;30230;47.520;19.016;2023-02-04T09:01:40;98923.28;;;1.70;78.94
42289;BME280;30230;47.520;19.016;2023-02-04T09:03:41;98917.72;;;1.81;78.51
42289;BME280;30230;47.520;19.016;2023-02-04T09:05:42;98907.56;;;1.85;78.37
42289;BME280;30230;47.520;19.016;2023-02-04T09:07:42;98953.06;;;1.91;77.58
42289;BME280;30230;47.520;19.016;2023-02-04T09:09:44;98955.38;;;1.86;78.75
42289;BME280;30230;47.520;19.016;2023-02-04T09:11:44;98944.00;;;2.02;78.16
42289;BME280;30230;47.520;19.016;2023-02-04T09:13:44;98931.28;;;1.96;77.94
42289;BME280;30230;47.520;19.016;2023-02-04T09:15:46;98958.03;;;2.12;76.76
42289;BME280;30230;47.520;19.016;2023-02-04T09:17:46;98977.63;;;2.29;76.00
42289;BME280;30230;47.520;19.016;2023-02-04T09:19:47;98979.75;;;2.25;75.85
42289;BME280;30230;47.520;19.016;2023-02-04T09:21:47;98995.94;;;2.32;76.25
42289;BME280;30230;47.520;19.016;2023-02-04T09:23:48;98989.47;;;2.34;75.46
42289;BME280;30230;47.520;19.016;2023-02-04T09:25:48;98994.28;;;2.31;75.00
42289;BME280;30230;47.520;19.016;2023-02-04T09:27:48;99014.13;;;2.37;75.78
42289;BME280;30230;47.520;19.016;2023-02-04T09:29:49;98987.75;;;2.25;75.45
42289;BME280;30230;47.520;19.016;2023-02-04T09:31:50;99026.72;;;2.52;74.05
42289;BME280;30230;47.520;19.016;2023-02-04T09:33:50;99048.47;;;2.66;73.31
42289;BME280;30230;47.520;19.016;2023-02-04T09:35:51;99057.72;;;2.87;73.18
42289;BME280;30230;47.520;19.016;2023-02-04T09:37:51;99059.22;;;2.82;72.39
42289;BME280;30230;47.520;19.016;2023-02-04T09:39:52;99064.03;;;2.78;72.41
42289;BME280;30230;47.520;19.016;2023-02-04T09:41:53;99066.66;;;2.70;73.43
42289;BME280;30230;47.520;19.016;2023-02-04T09:43:54;99076.16;;;2.47;73.28
42289;BME280;30230;47.520;19.016;2023-02-04T09:45:56;99088.50;;;2.48;73.91
42289;BME280;30230;47.520;19.016;2023-02-04T09:47:58;99094.38;;;2.51;74.27
42289;BME280;30230;47.520;19.016;2023-02-04T09:49:59;99116.03;;;2.48;72.48
42289;BME280;30230;47.520;19.016;2023-02-04T09:51:59;99126.97;;;2.45;72.58
42289;BME280;30230;47.520;19.016;2023-02-04T09:54:08;99123.56;;;2.35;73.24
42289;BME280;30230;47.520;19.016;2023-02-04T09:56:11;99145.47;;;2.47;71.85
42289;BME280;30230;47.520;19.016;2023-02-04T09:58:17;99155.53;;;2.53;72.63
42289;BME280;30230;47.520;19.016;2023-02-04T10:00:22;99154.38;;;2.55;72.65
42289;BME280;30230;47.520;19.016;2023-02-04T10:02:24;99163.06;;;2.57;71.59
42289;BME280;30230;47.520;19.016;2023-02-04T10:04:25;99170.56;;;2.54;72.47
42289;BME280;30230;47.520;19.016;2023-02-04T10:06:26;99175.75;;;2.64;68.93
42289;BME280;30230;47.520;19.016;2023-02-04T10:08:28;99179.88;;;2.76;75.03
42289;BME280;30230;47.520;19.016;2023-02-04T10:10:30;99178.97;;;2.67;70.42
42289;BME280;30230;47.520;19.016;2023-02-04T10:12:31;99193.63;;;2.89;69.13
42289;BME280;30230;47.520;19.016;2023-02-04T10:14:31;99199.19;;;2.96;67.36
42289;BME280;30230;47.520;19.016;2023-02-04T10:16:32;99198.03;;;2.98;66.08
42289;BME280;30230;47.520;19.016;2023-02-04T10:18:35;99194.16;;;2.93;67.10
42289;BME280;30230;47.520;19.016;2023-02-04T10:20:35;99204.56;;;3.04;66.52
42289;BME280;30230;47.520;19.016;2023-02-04T10:22:37;99217.53;;;2.99;66.57
42289;BME280;30230;47.520;19.016;2023-02-04T10:24:38;99226.44;;;3.07;66.13
42289;BME280;30230;47.520;19.016;2023-02-04T10:26:38;99200.41;;;2.83;65.99
42289;BME280;30230;47.520;19.016;2023-02-04T10:28:39;99222.59;;;3.10;64.96
42289;BME280;30230;47.520;19.016;2023-02-04T10:30:41;99243.13;;;3.09;64.13
42289;BME280;30230;47.520;19.016;2023-02-04T10:32:42;99240.31;;;3.11;63.68
42289;BME280;30230;47.520;19.016;2023-02-04T10:34:45;99265.66;;;3.15;64.72
42289;BME280;30230;47.520;19.016;2023-02-04T10:36:50;99264.09;;;3.30;63.43
42289;BME280;30230;47.520;19.016;2023-02-04T10:39:05;99273.53;;;3.43;64.60